Time;durP1;ratioP1;P1;durP2;ratioP2;P2;SDS_P1;SDS_P2;PMS_P1;PMS_P2;Temp;Humidity;BMP_temperature;BMP_pressure;BME280_temperature;BME280_humidity;BME280_pressure;Samples;Min_cycle;Max_cycle;Signal;HPM_P1;HPM_P2
2023/01/11 00:02:34;;;;;;;37.97;17.83;;;3.60;99.90;;;;;;4446495;28;658469;-72
2023/01/11 00:05:21;;;;;;;39.20;18.00;;;3.60;99.90;;;;;;4425680;28;657841;-72
2023/01/11 00:08:08;;;;;;;38.63;17.30;;;3.60;99.90;;;;;;4445315;28;658781;-72
2023/01/11 00:10:56;;;;;;;39.07;17.83;;;3.60;99.90;;;;;;4414080;28;657586;-71
2023/01/11 00:13:44;;;;;;;36.47;16.70;;;3.60;99.90;;;;;;4448863;28;658903;-72
2023/01/11 00:16:32;;;;;;;37.13;17.07;;;3.50;99.90;;;;;;4424257;28;657704;-71
2023/01/11 00:19:19;;;;;;;31.37;15.77;;;3.50;99.90;;;;;;4443851;28;657827;-71
2023/01/11 00:22:06;;;;;;;36.03;17.47;;;3.50;99.90;;;;;;4421469;28;657451;-72
2023/01/11 00:24:53;;;;;;;35.80;17.60;;;3.60;99.90;;;;;;4444847;28;657593;-72
2023/01/11 00:27:40;;;;;;;35.77;17.57;;;3.60;99.90;;;;;;4422868;28;657977;-72
2023/01/11 00:30:29;;;;;;;38.57;18.57;;;3.70;99.90;;;;;;4438966;28;659136;-72
2023/01/11 00:33:16;;;;;;;35.37;17.27;;;3.70;99.90;;;;;;4422457;28;658199;-71
2023/01/11 00:36:04;;;;;;;38.17;18.20;;;3.70;99.90;;;;;;4444075;28;658557;-72
2023/01/11 00:38:52;;;;;;;42.87;18.47;;;3.70;99.90;;;;;;4425126;28;657748;-71
2023/01/11 00:48:04;;;;;;;37.00;18.30;;;3.70;99.90;;;;;;4411597;28;658254;-72
2023/01/11 00:50:53;;;;;;;36.47;18.50;;;3.70;99.90;;;;;;4419985;28;657374;-71
2023/01/11 00:53:40;;;;;;;35.80;17.60;;;3.70;99.90;;;;;;4424605;28;657324;-72
2023/01/11 00:56:27;;;;;;;41.53;18.93;;;3.70;99.90;;;;;;4442825;28;658568;-72
2023/01/11 00:59:15;;;;;;;44.17;18.83;;;3.70;99.90;;;;;;4437493;28;657696;-72
2023/01/11 01:02:02;;;;;;;45.77;20.67;;;3.70;99.90;;;;;;4444435;28;658304;-72
2023/01/11 01:04:52;;;;;;;43.80;19.90;;;3.70;99.90;;;;;;4437797;28;657838;-72
2023/01/11 01:07:39;;;;;;;40.10;19.47;;;3.80;99.90;;;;;;4445224;28;657636;-72
2023/01/11 01:10:26;;;;;;;46.23;19.50;;;3.70;99.90;;;;;;4424184;28;657446;-72
2023/01/11 01:16:18;;;;;;;39.53;18.03;;;3.60;99.90;;;;;;4415851;28;658075;-72
2023/01/11 01:19:06;;;;;;;38.13;18.33;;;3.60;99.90;;;;;;4422302;28;658909;-72
2023/01/11 01:21:55;;;;;;;39.47;17.97;;;3.60;99.90;;;;;;4440327;28;657424;-72
2023/01/11 01:24:42;;;;;;;34.77;17.70;;;3.60;99.90;;;;;;4423682;28;658254;-72
2023/01/11 01:27:29;;;;;;;36.03;17.40;;;3.60;99.90;;;;;;4443633;28;658754;-72
2023/01/11 01:30:17;;;;;;;45.17;20.52;;;3.60;99.90;;;;;;4422228;28;657416;-71
2023/01/11 01:33:04;;;;;;;55.03;25.37;;;3.60;99.90;;;;;;4437749;28;656996;-72
2023/01/11 01:35:51;;;;;;;61.77;25.70;;;3.70;99.90;;;;;;4425423;28;657352;-72
2023/01/11 01:38:40;;;;;;;60.10;25.83;;;3.60;99.90;;;;;;4439452;28;658340;-71
2023/01/11 01:41:27;;;;;;;62.17;26.07;;;3.70;99.90;;;;;;4421680;28;657591;-72
2023/01/11 01:44:52;;;;;;;57.27;26.60;;;3.70;99.90;;;;;;4439573;28;658268;-72
2023/01/11 01:47:43;;;;;;;64.67;28.60;;;3.70;99.90;;;;;;4424531;28;658460;-71
2023/01/11 01:50:32;;;;;;;67.40;27.20;;;3.70;99.90;;;;;;4404991;28;657873;-72
2023/01/11 01:53:21;;;;;;;58.80;26.10;;;3.60;99.90;;;;;;4436539;28;658024;-72
2023/01/11 01:56:11;;;;;;;56.73;26.27;;;3.60;99.90;;;;;;4416756;28;658410;-72
2023/01/11 01:59:00;;;;;;;58.23;26.07;;;3.60;99.90;;;;;;4412884;28;658037;-72
2023/01/11 02:01:47;;;;;;;58.07;25.57;;;3.60;99.90;;;;;;4416103;28;659008;-72
2023/01/11 02:04:36;;;;;;;61.93;25.50;;;3.60;99.90;;;;;;4450753;28;657018;-72
2023/01/11 02:07:26;;;;;;;63.97;25.87;;;3.60;99.90;;;;;;4418654;28;658444;-71
2023/01/11 02:10:15;;;;;;;60.08;26.30;;;3.60;99.90;;;;;;4422672;28;658299;-71
2023/01/11 02:13:05;;;;;;;57.60;25.00;;;3.50;99.90;;;;;;4418032;28;659551;-72
2023/01/11 02:16:06;;;;;;;67.80;25.60;;;3.50;99.90;;;;;;4420303;28;657458;-72
2023/01/11 02:18:53;;;;;;;64.23;26.17;;;3.50;99.90;;;;;;4418481;28;657504;-72
2023/01/11 02:21:46;;;;;;;62.00;27.03;;;3.50;99.90;;;;;;4426231;28;657966;-71
2023/01/11 02:24:48;;;;;;;68.90;28.23;;;3.40;99.90;;;;;;4417980;28;658749;-72
2023/01/11 02:27:50;;;;;;;62.40;26.20;;;3.40;99.90;;;;;;4409517;28;657624;-72
2023/01/11 02:30:41;;;;;;;61.63;26.10;;;3.40;99.90;;;;;;4434181;28;657551;-71
2023/01/11 02:33:32;;;;;;;63.83;26.50;;;3.30;99.90;;;;;;4430954;28;657995;-72
2023/01/11 02:36:22;;;;;;;63.60;26.53;;;3.30;99.90;;;;;;4428136;28;657793;-71
2023/01/11 02:39:14;;;;;;;55.43;23.60;;;3.30;99.90;;;;;;4419559;28;657362;-71
2023/01/11 02:45:15;;;;;;;65.20;25.53;;;3.30;99.90;;;;;;4419616;28;657888;-71
2023/01/11 02:48:04;;;;;;;65.43;25.63;;;3.20;99.90;;;;;;4392695;28;658347;-72
2023/01/11 02:50:57;;;;;;;67.07;26.70;;;3.20;99.90;;;;;;4419370;28;657534;-72
2023/01/11 02:53:46;;;;;;;58.47;25.23;;;3.20;99.90;;;;;;4425817;28;657948;-71
2023/01/11 02:56:36;;;;;;;57.77;24.97;;;3.20;99.90;;;;;;4422797;28;658542;-72
2023/01/11 02:59:24;;;;;;;60.30;24.60;;;3.20;99.90;;;;;;4420976;28;658201;-72
2023/01/11 03:02:13;;;;;;;58.00;23.90;;;3.20;99.90;;;;;;4424436;28;657844;-72
2023/01/11 03:05:00;;;;;;;61.72;25.77;;;3.20;99.90;;;;;;4431266;28;657736;-72
2023/01/11 03:07:53;;;;;;;56.90;24.60;;;3.20;99.90;;;;;;4447242;28;658299;-71
2023/01/11 03:10:45;;;;;;;56.70;24.33;;;3.20;99.90;;;;;;4431794;28;658203;-71
2023/01/11 03:13:39;;;;;;;59.67;24.27;;;3.30;99.90;;;;;;4422304;28;658395;-71
2023/01/11 03:16:27;;;;;;;55.17;23.87;;;3.20;99.90;;;;;;4417868;28;657468;-72
2023/01/11 03:19:19;;;;;;;57.57;23.77;;;3.20;99.90;;;;;;4429840;28;657376;-71
2023/01/11 03:22:09;;;;;;;52.73;23.27;;;3.20;99.90;;;;;;4407918;28;657642;-71
2023/01/11 03:24:59;;;;;;;56.50;23.23;;;3.20;99.90;;;;;;4404791;28;657614;-71
2023/01/11 03:27:50;;;;;;;57.00;22.33;;;3.20;99.90;;;;;;4412390;28;657527;-71
2023/01/11 03:30:40;;;;;;;52.73;22.50;;;3.20;99.90;;;;;;4407786;28;659381;-71
2023/01/11 03:33:32;;;;;;;55.57;22.80;;;3.20;99.90;;;;;;4410519;28;659115;-71
2023/01/11 03:36:23;;;;;;;53.77;22.40;;;3.20;99.90;;;;;;4397035;28;657397;-71
2023/01/11 03:39:14;;;;;;;53.00;23.27;;;3.20;99.90;;;;;;4397292;28;658341;-71
2023/01/11 03:42:01;;;;;;;51.87;22.67;;;3.10;99.90;;;;;;4408576;28;658018;-71
2023/01/11 03:44:50;;;;;;;51.90;22.63;;;3.10;99.90;;;;;;4432848;28;658078;-71
2023/01/11 03:47:37;;;;;;;42.90;19.52;;;3.10;99.90;;;;;;4411732;28;658202;-71
2023/01/11 03:50:25;;;;;;;51.10;21.80;;;3.10;99.90;;;;;;4438395;28;658012;-71
2023/01/11 03:53:13;;;;;;;59.83;23.03;;;3.10;99.90;;;;;;4409426;28;658094;-71
2023/01/11 03:56:00;;;;;;;53.53;20.73;;;3.20;99.90;;;;;;4412708;28;657596;-71
2023/01/11 03:58:48;;;;;;;50.70;21.83;;;3.10;99.90;;;;;;4424926;28;658359;-71
2023/01/11 04:01:35;;;;;;;55.33;21.83;;;3.10;99.90;;;;;;4421802;28;658033;-71
2023/01/11 04:04:22;;;;;;;53.23;21.70;;;3.10;99.90;;;;;;4431252;28;658195;-71
2023/01/11 04:07:10;;;;;;;55.63;21.67;;;3.10;99.90;;;;;;4421984;28;657888;-71
2023/01/11 04:09:59;;;;;;;55.83;21.73;;;3.10;99.90;;;;;;4439866;28;658017;-71
2023/01/11 04:12:46;;;;;;;49.10;21.53;;;3.10;99.90;;;;;;4411620;28;658284;-71
2023/01/11 04:15:34;;;;;;;49.13;21.43;;;3.10;99.90;;;;;;4424169;28;657708;-71
2023/01/11 04:18:21;;;;;;;48.60;21.03;;;3.00;99.90;;;;;;4409153;28;657611;-71
2023/01/11 04:21:09;;;;;;;51.57;21.17;;;3.00;99.90;;;;;;4441164;28;657939;-71
2023/01/11 04:23:56;;;;;;;53.23;21.57;;;3.00;99.90;;;;;;4413014;28;657444;-71
2023/01/11 04:26:44;;;;;;;54.10;20.90;;;3.00;99.90;;;;;;4441822;28;657977;-71
2023/01/11 04:29:32;;;;;;;50.90;21.03;;;3.10;99.90;;;;;;4424205;28;658328;-71
2023/01/11 04:32:19;;;;;;;48.80;21.90;;;3.00;99.90;;;;;;4439504;28;656968;-71
2023/01/11 04:35:07;;;;;;;50.97;20.83;;;3.00;99.90;;;;;;4418495;28;657863;-71
2023/01/11 04:37:54;;;;;;;56.83;20.67;;;3.00;99.90;;;;;;4442500;28;657820;-71
2023/01/11 04:40:41;;;;;;;41.43;20.23;;;3.00;99.90;;;;;;4421003;28;658150;-71
2023/01/11 04:43:29;;;;;;;48.60;20.33;;;3.00;99.90;;;;;;4435830;28;658883;-71
2023/01/11 04:46:16;;;;;;;58.23;19.83;;;3.00;99.90;;;;;;4416587;28;658046;-71
2023/01/11 04:49:03;;;;;;;43.00;18.57;;;3.00;99.90;;;;;;4436973;28;658554;-71
2023/01/11 04:51:51;;;;;;;44.60;18.50;;;3.00;99.90;;;;;;4415747;28;658285;-71
2023/01/11 04:54:38;;;;;;;48.10;19.17;;;3.00;99.90;;;;;;4442543;28;658568;-71
2023/01/11 04:57:25;;;;;;;40.40;18.47;;;3.00;99.90;;;;;;4418300;28;657584;-71
2023/01/11 05:00:15;;;;;;;46.07;19.50;;;3.00;99.90;;;;;;4440748;28;658356;-71
2023/01/11 05:03:02;;;;;;;45.37;19.53;;;3.00;99.90;;;;;;4414837;28;658541;-71
2023/01/11 05:05:55;;;;;;;43.40;18.85;;;3.00;99.90;;;;;;4437025;28;657504;-71
2023/01/11 05:08:45;;;;;;;47.97;18.90;;;3.10;99.90;;;;;;4413351;28;657651;-72
2023/01/11 05:11:33;;;;;;;47.83;19.87;;;3.10;99.90;;;;;;4415592;28;658365;-71
2023/01/11 05:14:20;;;;;;;45.20;20.00;;;3.00;99.90;;;;;;4422132;28;657594;-71
2023/01/11 05:17:12;;;;;;;43.03;18.83;;;3.10;99.90;;;;;;4438156;28;658650;-71
2023/01/11 05:19:59;;;;;;;46.00;19.20;;;3.10;99.90;;;;;;4417867;28;657501;-71
2023/01/11 05:22:47;;;;;;;48.80;18.00;;;3.10;99.90;;;;;;4416822;28;657583;-71
2023/01/11 05:25:34;;;;;;;42.83;18.13;;;3.00;99.90;;;;;;4429995;28;657829;-71
2023/01/11 05:28:21;;;;;;;40.37;16.43;;;3.00;99.90;;;;;;4412689;28;660974;-71
2023/01/11 05:31:08;;;;;;;50.07;19.23;;;3.00;99.90;;;;;;4440864;28;658237;-71
2023/01/11 05:33:57;;;;;;;102.90;36.07;;;2.90;99.90;;;;;;4415121;28;657603;-71
2023/01/11 05:36:45;;;;;;;231.00;32.93;;;2.90;99.90;;;;;;4440156;28;658571;-70
2023/01/11 05:39:32;;;;;;;522.20;37.67;;;2.90;99.90;;;;;;4438420;28;659466;-71
2023/01/11 05:42:20;;;;;;;588.43;40.03;;;2.90;99.90;;;;;;4433484;28;658609;-71
2023/01/11 05:48:13;;;;;;;305.47;34.33;;;2.90;99.90;;;;;;4409299;28;659341;-71
2023/01/11 05:51:02;;;;;;;153.57;34.93;;;2.80;99.90;;;;;;4418780;28;658584;-71
2023/01/11 05:53:49;;;;;;;158.33;34.37;;;2.80;99.90;;;;;;4440599;28;659880;-71
2023/01/11 05:56:36;;;;;;;192.80;36.67;;;2.80;99.90;;;;;;4425399;28;658811;-71
2023/01/11 05:59:25;;;;;;;527.47;36.80;;;2.80;99.90;;;;;;4436893;28;659683;-71
2023/01/11 06:02:12;;;;;;;589.17;35.83;;;2.80;99.90;;;;;;4420625;28;658874;-71
2023/01/11 06:05:00;;;;;;;888.63;43.70;;;2.70;99.90;;;;;;4438024;28;660812;-71
2023/01/11 06:07:49;;;;;;;729.63;41.10;;;2.70;99.90;;;;;;4442709;28;659014;-71
2023/01/11 06:10:36;;;;;;;368.90;40.60;;;2.70;99.90;;;;;;4426137;28;658970;-71
2023/01/11 06:13:26;;;;;;;619.60;38.87;;;2.70;99.90;;;;;;4446133;28;659104;-71
2023/01/11 06:16:15;;;;;;;452.67;53.37;;;2.70;99.90;;;;;;4411570;28;659198;-71
2023/01/11 06:19:02;;;;;;;428.10;39.10;;;2.70;99.90;;;;;;4428453;28;659634;-70
2023/01/11 06:21:49;;;;;;;419.00;39.20;;;2.70;99.90;;;;;;4439491;28;659205;-71
2023/01/11 06:24:38;;;;;;;401.37;35.97;;;2.70;99.90;;;;;;4424248;28;659036;-70
2023/01/11 06:27:25;;;;;;;304.50;35.97;;;2.70;99.90;;;;;;4423068;28;658861;-70
2023/01/11 06:30:13;;;;;;;522.83;40.50;;;2.70;99.90;;;;;;4448463;28;659176;-71
2023/01/11 06:33:04;;;;;;;350.40;47.77;;;2.70;99.90;;;;;;4422848;28;658577;-71
2023/01/11 06:35:52;;;;;;;545.33;56.17;;;2.70;99.90;;;;;;4427212;28;659511;-71
2023/01/11 06:38:39;;;;;;;283.33;38.07;;;2.70;99.90;;;;;;4446769;28;659357;-72
2023/01/11 06:41:28;;;;;;;416.47;38.13;;;2.70;99.90;;;;;;4426176;28;659011;-71
2023/01/11 06:44:15;;;;;;;351.23;39.03;;;2.70;99.90;;;;;;4429269;28;658562;-71
2023/01/11 06:47:03;;;;;;;644.93;60.70;;;2.70;99.90;;;;;;4442823;28;659121;-71
2023/01/11 06:49:50;;;;;;;458.63;46.20;;;2.70;99.90;;;;;;4433283;28;658856;-71
2023/01/11 06:52:37;;;;;;;586.47;51.27;;;2.60;99.90;;;;;;4441071;28;659709;-71
2023/01/11 06:55:26;;;;;;;309.83;42.27;;;2.70;99.90;;;;;;4439388;28;658352;-71
2023/01/11 06:58:15;;;;;;;569.60;41.87;;;2.60;99.90;;;;;;4442686;28;659431;-71
2023/01/11 07:01:02;;;;;;;469.43;45.20;;;2.70;99.90;;;;;;4416078;28;659989;-71
2023/01/11 07:03:49;;;;;;;475.77;36.57;;;2.70;99.90;;;;;;4443367;28;659052;-71
2023/01/11 07:06:37;;;;;;;586.17;47.83;;;2.80;99.90;;;;;;4411872;28;659828;-71
2023/01/11 07:09:24;;;;;;;495.83;33.70;;;2.80;99.90;;;;;;4434619;28;657967;-71
2023/01/11 07:12:11;;;;;;;345.70;31.30;;;2.80;99.90;;;;;;4413402;28;659320;-70
2023/01/11 07:15:00;;;;;;;543.80;34.28;;;2.80;99.90;;;;;;4432464;28;659511;-71
2023/01/11 07:17:48;;;;;;;630.83;42.33;;;2.80;99.90;;;;;;4415729;28;659438;-71
2023/01/11 07:20:35;;;;;;;295.60;29.03;;;2.80;99.90;;;;;;4420282;28;659912;-71
2023/01/11 07:23:22;;;;;;;304.90;28.57;;;2.80;99.90;;;;;;4437967;28;659502;-71
2023/01/11 07:26:10;;;;;;;476.93;41.53;;;2.70;99.90;;;;;;4437707;28;658516;-71
2023/01/11 07:28:57;;;;;;;341.23;32.87;;;2.70;99.90;;;;;;4440023;28;659499;-71
2023/01/11 07:31:47;;;;;;;443.30;31.30;;;2.70;99.90;;;;;;4435890;28;658761;-71
2023/01/11 07:34:34;;;;;;;220.50;28.67;;;2.70;99.90;;;;;;4444922;28;657887;-72
2023/01/11 07:37:24;;;;;;;277.87;30.63;;;2.70;99.90;;;;;;4419863;28;658967;-71
2023/01/11 07:40:15;;;;;;;237.27;29.73;;;2.70;99.90;;;;;;4412514;28;658421;-71
2023/01/11 07:43:13;;;;;;;356.23;32.03;;;2.70;99.90;;;;;;4417803;28;659968;-71
2023/01/11 07:46:00;;;;;;;273.17;28.67;;;2.70;99.90;;;;;;4382025;28;658469;-71
2023/01/11 07:48:49;;;;;;;266.80;30.20;;;2.70;99.90;;;;;;4434387;28;658414;-71
2023/01/11 07:51:36;;;;;;;203.50;31.67;;;2.80;99.90;;;;;;4417886;28;659494;-71
2023/01/11 07:54:24;;;;;;;197.97;27.77;;;2.90;99.90;;;;;;4435216;28;659532;-71
2023/01/11 07:57:11;;;;;;;201.97;26.23;;;3.00;99.90;;;;;;4413095;28;658543;-71
2023/01/11 07:59:59;;;;;;;180.13;25.60;;;3.00;99.90;;;;;;4436349;28;659169;-71
2023/01/11 08:02:49;;;;;;;136.10;25.87;;;3.00;99.90;;;;;;4419273;28;659165;-71
2023/01/11 08:05:37;;;;;;;99.37;23.13;;;3.00;99.90;;;;;;4418447;28;658584;-71
2023/01/11 08:08:25;;;;;;;253.53;26.07;;;3.00;99.90;;;;;;4432597;28;657699;-71
2023/01/11 08:17:22;;;;;;;252.30;26.27;;;3.10;99.90;;;;;;4407367;28;658967;-71
2023/01/11 08:20:11;;;;;;;239.60;27.17;;;3.20;99.90;;;;;;4429698;28;658414;-71
2023/01/11 08:23:02;;;;;;;172.60;31.27;;;3.20;99.90;;;;;;4416858;28;659098;-71
2023/01/11 08:25:49;;;;;;;216.70;27.33;;;3.10;99.90;;;;;;4414870;28;659237;-72
2023/01/11 08:28:36;;;;;;;305.87;29.80;;;3.20;99.90;;;;;;4418494;28;658702;-71
2023/01/11 08:31:25;;;;;;;368.17;30.77;;;3.30;99.90;;;;;;4441028;28;659504;-71
2023/01/11 08:34:12;;;;;;;278.53;29.33;;;3.30;99.90;;;;;;4416435;28;658564;-72
2023/01/11 08:37:00;;;;;;;351.83;30.77;;;3.40;99.90;;;;;;4435618;28;658995;-72
2023/01/11 08:39:50;;;;;;;267.13;28.47;;;3.20;99.90;;;;;;4412433;28;659200;-72
2023/01/11 08:42:37;;;;;;;458.43;31.63;;;3.30;99.90;;;;;;4414700;28;659059;-71
2023/01/11 08:45:24;;;;;;;293.33;31.00;;;3.40;99.90;;;;;;4418690;28;658526;-72
2023/01/11 08:48:12;;;;;;;144.45;30.13;;;3.40;99.90;;;;;;4414748;28;659171;-71
2023/01/11 08:50:59;;;;;;;562.47;34.77;;;3.50;99.90;;;;;;4439047;28;659234;-72
2023/01/11 08:53:46;;;;;;;308.37;30.40;;;3.60;99.90;;;;;;4417640;28;659045;-72
2023/01/11 08:56:35;;;;;;;312.13;33.40;;;3.50;99.90;;;;;;4435477;28;659274;-72
2023/01/11 08:59:22;;;;;;;310.53;33.23;;;3.60;99.90;;;;;;4413005;28;659448;-71
2023/01/11 09:02:09;;;;;;;208.67;35.87;;;3.70;99.90;;;;;;4434864;28;658577;-71
2023/01/11 09:04:57;;;;;;;86.90;30.77;;;3.80;99.90;;;;;;4419449;28;659177;-71
2023/01/11 09:07:44;;;;;;;109.33;34.17;;;3.80;99.90;;;;;;4438735;28;658378;-72
2023/01/11 09:10:31;;;;;;;89.40;31.50;;;4.00;99.90;;;;;;4415614;28;658519;-72
2023/01/11 09:13:20;;;;;;;75.43;28.33;;;4.20;99.90;;;;;;4432351;28;658332;-72
2023/01/11 09:16:07;;;;;;;83.43;29.00;;;4.30;99.90;;;;;;4418039;28;658703;-71
2023/01/11 09:18:55;;;;;;;68.43;26.10;;;4.40;99.90;;;;;;4437977;28;657480;-72
2023/01/11 09:21:42;;;;;;;76.85;27.73;;;4.60;99.90;;;;;;4388841;28;658216;-70
2023/01/11 09:24:30;;;;;;;69.00;27.47;;;5.00;99.90;;;;;;4376029;28;657586;-71
2023/01/11 09:27:17;;;;;;;60.53;25.10;;;5.10;99.90;;;;;;4355887;28;657765;-71
2023/01/11 09:30:08;;;;;;;71.83;26.30;;;5.00;99.90;;;;;;4318002;28;658173;-71
2023/01/11 09:32:56;;;;;;;73.53;27.20;;;4.80;99.90;;;;;;4321960;28;657847;-70
2023/01/11 09:35:45;;;;;;;70.30;25.83;;;4.80;99.90;;;;;;4432257;28;657239;-71
2023/01/11 09:38:32;;;;;;;57.83;24.77;;;4.80;99.90;;;;;;4412390;28;658164;-72
2023/01/11 09:41:28;;;;;;;67.67;26.23;;;4.80;99.90;;;;;;4393107;28;657581;-71
2023/01/11 09:44:19;;;;;;;59.43;24.33;;;4.70;99.90;;;;;;4344275;28;657839;-71
2023/01/11 09:47:12;;;;;;;56.50;23.10;;;4.80;99.90;;;;;;4413969;28;657629;-72
2023/01/11 09:50:01;;;;;;;49.50;22.17;;;5.10;99.90;;;;;;4413260;28;658104;-72
2023/01/11 09:52:51;;;;;;;47.40;20.60;;;5.40;99.90;;;;;;4362894;28;658584;-71
2023/01/11 09:55:40;;;;;;;49.80;21.80;;;5.70;99.90;;;;;;4412773;28;658288;-72
2023/01/11 09:58:54;;;;;;;44.13;19.33;;;5.70;99.90;;;;;;4412846;28;659107;-71
2023/01/11 10:01:44;;;;;;;48.10;22.10;;;5.60;99.90;;;;;;4424147;28;658028;-71
2023/01/11 10:05:02;;;;;;;43.07;21.57;;;5.70;99.90;;;;;;4416414;28;657952;-72
2023/01/11 10:07:57;;;;;;;44.83;22.20;;;6.30;99.90;;;;;;4410701;28;657842;-72
2023/01/11 10:10:50;;;;;;;40.53;20.43;;;7.20;99.90;;;;;;4415451;28;658067;-72
2023/01/11 10:13:44;;;;;;;35.57;17.93;;;8.10;99.90;;;;;;4413570;28;657974;-71
2023/01/11 10:16:37;;;;;;;34.10;17.20;;;9.00;99.90;;;;;;4394719;28;658916;-72
2023/01/11 10:19:25;;;;;;;39.33;20.63;;;9.90;99.90;;;;;;4421849;28;657505;-72
2023/01/11 10:22:16;;;;;;;33.93;18.30;;;10.60;99.90;;;;;;4414509;28;657668;-71
2023/01/11 10:25:09;;;;;;;31.90;18.00;;;10.70;99.90;;;;;;4413352;28;658757;-72
2023/01/11 10:27:59;;;;;;;34.70;18.73;;;10.30;99.90;;;;;;4388751;28;658987;-72
2023/01/11 10:31:05;;;;;;;31.87;16.43;;;10.10;99.90;;;;;;4411119;28;658992;-72
2023/01/11 10:34:08;;;;;;;33.27;18.40;;;9.90;99.90;;;;;;4388762;28;659462;-72
2023/01/11 10:37:15;;;;;;;37.27;20.57;;;9.50;99.90;;;;;;4395049;28;657867;-72
2023/01/11 10:40:20;;;;;;;41.83;19.70;;;9.00;99.90;;;;;;4393770;28;659571;-73
2023/01/11 10:43:11;;;;;;;40.53;20.33;;;8.80;99.90;;;;;;4413291;28;658077;-72
2023/01/11 10:46:00;;;;;;;37.87;19.83;;;8.10;99.90;;;;;;4414157;28;658434;-73
2023/01/11 10:48:47;;;;;;;48.23;23.23;;;7.60;99.90;;;;;;4426516;28;658415;-73
2023/01/11 10:51:37;;;;;;;41.33;20.03;;;7.20;99.90;;;;;;4438591;28;657668;-72
2023/01/11 10:54:27;;;;;;;41.20;20.40;;;6.50;99.90;;;;;;4439787;28;657983;-73
2023/01/11 10:57:19;;;;;;;46.07;21.43;;;6.40;99.90;;;;;;4420429;28;658813;-72
2023/01/11 11:00:15;;;;;;;50.50;22.30;;;6.50;99.90;;;;;;4391775;28;658302;-72
2023/01/11 11:03:12;;;;;;;49.63;20.67;;;6.90;99.90;;;;;;4390497;28;657729;-72
2023/01/11 11:06:01;;;;;;;43.43;21.47;;;7.30;99.90;;;;;;4429616;28;657608;-72
2023/01/11 11:08:50;;;;;;;38.53;20.07;;;8.00;99.90;;;;;;4416122;28;658478;-72
2023/01/11 11:11:38;;;;;;;41.20;20.17;;;8.70;99.90;;;;;;4404235;28;658427;-72
2023/01/11 11:14:30;;;;;;;41.07;21.10;;;9.30;99.90;;;;;;4416662;28;657577;-72
2023/01/11 11:17:21;;;;;;;105.47;44.70;;;9.90;99.90;;;;;;4409544;28;658259;-72
2023/01/11 11:20:13;;;;;;;65.83;28.63;;;10.20;99.90;;;;;;4413954;28;659629;-72
2023/01/11 11:23:00;;;;;;;73.33;37.27;;;10.60;99.90;;;;;;4398280;28;658872;-72
2023/01/11 11:25:49;;;;;;;34.87;18.83;;;10.80;99.90;;;;;;4445742;28;659229;-72
2023/01/11 11:28:36;;;;;;;38.60;19.73;;;10.90;99.90;;;;;;4412810;28;659209;-71
2023/01/11 11:31:25;;;;;;;35.93;19.90;;;11.00;99.90;;;;;;4434502;28;658672;-71
2023/01/11 11:34:15;;;;;;;43.47;23.17;;;11.50;99.90;;;;;;4413528;28;659349;-71
2023/01/11 11:37:02;;;;;;;37.97;20.13;;;11.70;99.90;;;;;;4417016;28;659459;-71
2023/01/11 11:39:49;;;;;;;65.33;33.23;;;12.00;99.90;;;;;;4433714;28;659203;-71
2023/01/11 11:42:37;;;;;;;47.93;24.57;;;12.40;99.90;;;;;;4415975;28;658411;-71
2023/01/11 11:45:24;;;;;;;38.10;22.20;;;12.80;99.90;;;;;;4418749;28;658498;-71
2023/01/11 11:48:13;;;;;;;33.03;19.73;;;12.90;99.60;;;;;;4415520;28;659323;-71
2023/01/11 11:51:01;;;;;;;38.30;21.07;;;12.50;95.80;;;;;;4432951;28;659780;-71
2023/01/11 11:53:52;;;;;;;38.03;21.80;;;11.70;98.20;;;;;;4430797;28;659374;-71
2023/01/11 11:56:40;;;;;;;37.00;20.17;;;11.60;99.90;;;;;;4410632;28;658850;-70
2023/01/11 11:59:31;;;;;;;35.13;19.87;;;11.90;98.40;;;;;;4416605;28;658997;-70
2023/01/11 12:02:22;;;;;;;35.57;20.30;;;11.80;99.90;;;;;;4416913;28;659290;-71
2023/01/11 12:05:11;;;;;;;35.70;20.17;;;12.10;99.90;;;;;;4423480;28;658515;-71
2023/01/11 12:07:58;;;;;;;34.83;19.23;;;12.40;97.60;;;;;;4414674;28;659786;-71
2023/01/11 12:10:50;;;;;;;36.80;19.80;;;12.30;96.40;;;;;;4414721;28;658883;-71
2023/01/11 12:13:38;;;;;;;39.23;21.47;;;11.70;97.40;;;;;;4418780;28;659774;-71
2023/01/11 12:16:29;;;;;;;35.83;19.87;;;11.40;99.00;;;;;;4422530;28;658459;-71
2023/01/11 12:19:27;;;;;;;39.23;21.07;;;10.90;99.90;;;;;;4415230;28;658868;-71
2023/01/11 12:22:19;;;;;;;39.13;21.10;;;10.50;99.90;;;;;;4412686;28;658766;-71
2023/01/11 12:25:20;;;;;;;36.75;20.17;;;11.00;99.90;;;;;;4416180;28;658840;-70
2023/01/11 12:28:10;;;;;;;42.60;21.90;;;11.70;99.90;;;;;;4414850;28;659096;-70
2023/01/11 12:30:58;;;;;;;38.30;22.03;;;12.30;99.90;;;;;;4411663;28;658947;-70
2023/01/11 12:33:47;;;;;;;36.37;20.13;;;13.00;99.20;;;;;;4416714;28;658483;-70
2023/01/11 12:36:37;;;;;;;38.73;21.87;;;13.60;94.80;;;;;;4445272;28;658743;-69
2023/01/11 12:39:29;;;;;;;32.80;19.20;;;14.20;92.40;;;;;;4403667;28;658889;-69
2023/01/11 12:42:35;;;;;;;35.60;19.80;;;14.50;85.80;;;;;;4420183;28;658649;-69
2023/01/11 12:45:29;;;;;;;35.93;19.67;;;14.50;83.70;;;;;;4415348;28;658913;-69
2023/01/11 12:48:29;;;;;;;30.47;16.70;;;14.20;83.40;;;;;;4412833;28;658763;-69
2023/01/11 12:51:27;;;;;;;28.97;17.27;;;12.70;86.50;;;;;;4396805;28;659058;-69
2023/01/11 12:54:27;;;;;;;25.53;14.83;;;11.80;90.50;;;;;;4416045;28;659183;-70
2023/01/11 12:57:20;;;;;;;29.87;16.13;;;11.90;91.50;;;;;;4413680;28;658556;-70
2023/01/11 13:00:15;;;;;;;31.17;15.90;;;11.10;90.60;;;;;;4394663;28;659120;-69
2023/01/11 13:03:21;;;;;;;30.10;15.60;;;10.90;94.50;;;;;;4414810;28;659309;-69
2023/01/11 13:06:11;;;;;;;23.10;14.00;;;9.80;98.20;;;;;;4410906;28;659115;-69
2023/01/11 13:09:01;;;;;;;25.97;14.47;;;10.20;99.50;;;;;;4417895;28;657102;-69
2023/01/11 13:11:52;;;;;;;32.93;15.67;;;10.40;95.30;;;;;;4417865;28;659744;-69
2023/01/11 13:14:57;;;;;;;29.20;14.70;;;10.20;97.60;;;;;;4413246;28;660022;-69
2023/01/11 13:17:47;;;;;;;28.57;15.00;;;10.20;99.90;;;;;;4413367;28;658943;-69
2023/01/11 13:20:40;;;;;;;28.80;14.10;;;10.30;99.00;;;;;;4414151;28;658868;-70
2023/01/11 13:23:33;;;;;;;27.50;14.60;;;10.30;99.70;;;;;;4390147;28;658704;-69
2023/01/11 13:26:22;;;;;;;29.73;14.50;;;10.50;99.10;;;;;;4397525;28;658956;-70
2023/01/11 13:29:14;;;;;;;23.43;13.73;;;10.60;97.00;;;;;;4419538;28;659438;-69
2023/01/11 13:32:03;;;;;;;22.33;13.03;;;10.60;95.00;;;;;;4414876;28;659133;-69
2023/01/11 13:34:52;;;;;;;23.37;13.43;;;10.50;96.40;;;;;;4415504;28;658609;-69
2023/01/11 13:37:41;;;;;;;23.70;13.23;;;10.60;96.60;;;;;;4440882;28;657817;-69
2023/01/11 13:40:29;;;;;;;27.17;14.37;;;10.80;95.10;;;;;;4412165;28;659905;-69
2023/01/11 13:43:19;;;;;;;36.57;17.33;;;10.90;95.20;;;;;;4413762;28;659417;-69
2023/01/11 13:46:12;;;;;;;37.43;18.93;;;10.80;95.50;;;;;;4417008;28;658792;-69
2023/01/11 13:49:02;;;;;;;33.10;18.03;;;10.70;95.10;;;;;;4417964;28;658437;-70
2023/01/11 13:51:51;;;;;;;34.80;18.57;;;10.50;96.10;;;;;;4411227;28;658912;-69
2023/01/11 13:54:41;;;;;;;37.63;19.20;;;10.30;95.30;;;;;;4410099;28;658763;-69
2023/01/11 13:57:34;;;;;;;36.73;18.83;;;10.00;96.90;;;;;;4412521;28;659892;-69
2023/01/11 14:00:23;;;;;;;34.53;17.87;;;9.70;98.50;;;;;;4415382;28;658734;-69
2023/01/11 14:03:18;;;;;;;35.47;18.70;;;9.40;99.90;;;;;;4425361;28;658765;-69
2023/01/11 14:06:17;;;;;;;44.23;23.17;;;9.00;99.90;;;;;;4405791;28;658105;-68
2023/01/11 14:09:19;;;;;;;38.90;21.80;;;8.60;99.90;;;;;;4434514;28;657691;-69
2023/01/11 14:12:08;;;;;;;38.90;21.20;;;8.30;99.90;;;;;;4419656;28;657602;-69
2023/01/11 14:15:05;;;;;;;43.00;22.80;;;8.10;99.90;;;;;;4419983;28;657663;-69
2023/01/11 14:18:14;;;;;;;49.57;24.80;;;7.90;99.90;;;;;;4389252;28;658106;-69
2023/01/11 14:21:05;;;;;;;51.63;27.20;;;7.80;99.90;;;;;;4408757;28;657194;-69
2023/01/11 14:23:53;;;;;;;58.30;30.30;;;7.50;99.90;;;;;;4418412;28;658273;-69
2023/01/11 14:26:55;;;;;;;57.00;28.33;;;7.30;99.90;;;;;;4419325;28;658081;-69
2023/01/11 14:29:57;;;;;;;54.40;26.57;;;7.00;99.90;;;;;;4387559;28;657937;-69
2023/01/11 14:32:52;;;;;;;56.77;26.20;;;6.80;99.90;;;;;;4415687;28;657754;-69
2023/01/11 14:35:59;;;;;;;57.50;25.40;;;6.50;99.90;;;;;;4419600;28;658461;-70
2023/01/11 14:38:55;;;;;;;41.80;20.97;;;6.20;99.90;;;;;;4390936;28;657960;-69
2023/01/11 14:42:13;;;;;;;85.60;33.38;;;5.90;99.90;;;;;;4393640;28;658397;-69